Time;durP1;ratioP1;P1;durP2;ratioP2;P2;SDS_P1;SDS_P2;PMS_P1;PMS_P2;Temp;Humidity;BMP_temperature;BMP_pressure;BME280_temperature;BME280_humidity;BME280_pressure;Samples;Min_cycle;Max_cycle;Signal;HPM_P1;HPM_P2
2020/12/30 00:00:44;;;;;;;3.50;3.20;;;2.20;99.90;;;;;;5072015;28;20412;-64
2020/12/30 00:03:10;;;;;;;2.90;2.70;;;2.20;99.90;;;;;;5071557;28;20636;-64
2020/12/30 00:05:35;;;;;;;3.73;2.43;;;2.20;99.90;;;;;;5071726;28;20236;-64
2020/12/30 00:08:03;;;;;;;2.87;2.17;;;2.20;99.90;;;;;;5071263;28;20164;-64
2020/12/30 00:10:29;;;;;;;2.20;2.10;;;2.20;99.90;;;;;;5071568;28;20178;-64
2020/12/30 00:12:55;;;;;;;2.17;1.97;;;2.10;99.90;;;;;;5070690;28;20406;-64
2020/12/30 00:15:20;;;;;;;2.37;2.27;;;2.10;99.90;;;;;;5070733;28;20671;-64
2020/12/30 00:17:46;;;;;;;2.50;2.30;;;2.20;99.90;;;;;;5071006;28;20171;-64
2020/12/30 00:20:14;;;;;;;2.83;2.60;;;2.20;99.90;;;;;;5071170;28;20210;-64
2020/12/30 00:22:44;;;;;;;3.00;2.80;;;2.20;99.90;;;;;;5071344;28;20695;-64
2020/12/30 00:25:10;;;;;;;3.43;2.90;;;2.10;99.90;;;;;;5070973;28;20479;-64
2020/12/30 00:27:39;;;;;;;3.03;2.77;;;2.10;99.90;;;;;;5071187;28;20408;-64
2020/12/30 00:30:18;;;;;;;2.63;2.50;;;2.10;99.90;;;;;;5070922;28;20406;-64
2020/12/30 00:32:45;;;;;;;2.90;2.70;;;2.10;99.90;;;;;;5071272;28;20413;-64
2020/12/30 00:35:12;;;;;;;2.53;2.37;;;2.10;99.90;;;;;;5071188;28;20425;-64
2020/12/30 00:37:37;;;;;;;2.57;2.37;;;2.10;99.90;;;;;;5070954;28;20440;-64
2020/12/30 00:40:05;;;;;;;2.67;2.47;;;2.00;99.90;;;;;;5070880;28;20852;-64
2020/12/30 00:42:35;;;;;;;2.63;2.43;;;2.10;99.90;;;;;;5071266;28;20210;-64
2020/12/30 00:45:02;;;;;;;2.50;2.30;;;2.10;99.90;;;;;;5071331;28;20457;-64
2020/12/30 00:47:28;;;;;;;2.17;2.03;;;2.10;99.90;;;;;;5069852;28;20401;-64
2020/12/30 00:49:53;;;;;;;2.80;2.60;;;2.00;99.90;;;;;;5071017;28;20416;-63
2020/12/30 00:52:19;;;;;;;2.93;2.73;;;2.00;99.90;;;;;;5070869;28;20199;-64
2020/12/30 00:54:45;;;;;;;3.20;3.00;;;2.10;99.90;;;;;;5071142;28;20263;-63
2020/12/30 00:57:10;;;;;;;2.17;2.07;;;2.00;99.90;;;;;;5071435;28;20428;-64
2020/12/30 00:59:36;;;;;;;2.70;2.50;;;2.10;99.90;;;;;;5074616;28;20678;-64
2020/12/30 01:02:01;;;;;;;3.73;2.77;;;2.00;99.90;;;;;;5074756;28;20179;-64
2020/12/30 01:04:27;;;;;;;2.80;2.60;;;2.10;99.90;;;;;;5074685;28;20187;-64
2020/12/30 01:06:53;;;;;;;3.30;2.97;;;2.00;99.90;;;;;;5074420;28;20585;-64
2020/12/30 01:09:23;;;;;;;3.30;3.00;;;2.10;99.90;;;;;;5074585;28;20261;-64
2020/12/30 01:11:50;;;;;;;4.83;3.00;;;2.10;99.90;;;;;;5074792;28;20405;-64
2020/12/30 01:14:15;;;;;;;2.60;2.40;;;2.10;99.90;;;;;;5074437;28;20886;-64
2020/12/30 01:16:46;;;;;;;2.53;2.33;;;2.10;99.90;;;;;;5074246;28;20416;-64
2020/12/30 01:19:12;;;;;;;2.43;2.23;;;2.10;99.90;;;;;;5072770;28;20652;-64
2020/12/30 01:21:42;;;;;;;4.03;3.07;;;2.10;99.90;;;;;;5074307;28;20448;-63
2020/12/30 01:24:08;;;;;;;2.90;2.53;;;2.10;99.90;;;;;;5074021;28;20202;-64
2020/12/30 01:26:34;;;;;;;2.33;2.10;;;2.00;99.90;;;;;;5074421;28;20800;-63
2020/12/30 01:29:00;;;;;;;3.37;3.07;;;2.10;99.90;;;;;;5074191;28;20912;-64
2020/12/30 01:31:27;;;;;;;3.27;3.00;;;2.10;99.90;;;;;;5074232;28;20409;-64
2020/12/30 01:33:52;;;;;;;2.27;2.17;;;2.10;99.90;;;;;;5074297;28;20163;-64
2020/12/30 01:36:18;;;;;;;2.70;2.50;;;2.10;99.90;;;;;;5073663;28;20433;-64
2020/12/30 01:38:43;;;;;;;3.40;2.80;;;2.10;99.90;;;;;;5073683;28;20675;-64
2020/12/30 01:41:09;;;;;;;2.70;2.50;;;2.10;99.90;;;;;;5073894;28;20176;-64
2020/12/30 01:43:34;;;;;;;2.40;2.30;;;2.10;99.90;;;;;;5074260;28;20242;-64
2020/12/30 01:46:00;;;;;;;3.07;2.87;;;2.10;99.90;;;;;;5073898;28;20558;-64
2020/12/30 01:48:26;;;;;;;3.00;2.70;;;2.10;99.90;;;;;;5073622;28;20175;-64
2020/12/30 01:50:52;;;;;;;2.80;2.60;;;2.20;99.90;;;;;;5073790;28;20171;-64
2020/12/30 01:53:18;;;;;;;4.10;3.27;;;2.20;99.90;;;;;;5073999;28;20917;-64
2020/12/30 01:55:44;;;;;;;2.77;2.63;;;2.20;99.90;;;;;;5074012;28;20266;-64
2020/12/30 01:58:11;;;;;;;2.93;2.67;;;2.20;99.90;;;;;;5073542;28;20981;-64
2020/12/30 02:00:37;;;;;;;3.07;2.87;;;2.20;99.90;;;;;;5074001;28;20171;-64
2020/12/30 02:03:06;;;;;;;3.40;3.10;;;2.20;99.90;;;;;;5073624;28;20409;-64
2020/12/30 02:05:33;;;;;;;3.03;2.80;;;2.20;99.90;;;;;;5073552;28;20421;-64
2020/12/30 02:07:59;;;;;;;3.50;3.20;;;2.20;99.90;;;;;;5072786;28;20394;-64
2020/12/30 02:10:27;;;;;;;3.13;2.93;;;2.20;99.90;;;;;;5073667;28;20402;-64
2020/12/30 02:12:53;;;;;;;3.80;3.50;;;2.10;99.90;;;;;;5073515;28;20413;-64
2020/12/30 02:15:31;;;;;;;3.40;3.10;;;2.10;99.90;;;;;;5073360;28;20871;-64
2020/12/30 02:17:57;;;;;;;4.00;3.17;;;2.20;99.90;;;;;;5073198;28;20413;-63
2020/12/30 02:20:23;;;;;;;2.70;2.50;;;2.20;99.90;;;;;;5072943;28;20457;-64
2020/12/30 02:23:02;;;;;;;4.10;3.40;;;2.20;99.90;;;;;;5073360;28;20417;-64
2020/12/30 02:25:28;;;;;;;3.70;3.40;;;2.20;99.90;;;;;;5072950;28;20948;-64
2020/12/30 02:27:53;;;;;;;3.97;3.67;;;2.10;99.90;;;;;;5073003;28;20406;-64
2020/12/30 02:30:19;;;;;;;3.23;2.93;;;2.20;99.90;;;;;;5072894;28;20171;-64
2020/12/30 02:32:46;;;;;;;3.87;2.93;;;2.10;99.90;;;;;;5073309;28;20348;-64
2020/12/30 02:35:13;;;;;;;3.83;3.53;;;2.10;99.90;;;;;;5072978;28;20252;-64
2020/12/30 02:37:38;;;;;;;3.70;3.40;;;2.10;99.90;;;;;;5072809;28;20436;-64
2020/12/30 02:40:05;;;;;;;4.27;3.87;;;2.10;99.90;;;;;;5073031;28;20484;-63
2020/12/30 02:42:31;;;;;;;3.30;3.03;;;2.20;99.90;;;;;;5073420;28;20689;-63
2020/12/30 02:45:03;;;;;;;4.13;3.80;;;2.20;99.90;;;;;;5073264;28;20457;-64
2020/12/30 02:47:29;;;;;;;3.47;3.17;;;2.20;99.90;;;;;;5072413;28;20925;-64
2020/12/30 02:49:54;;;;;;;4.13;3.73;;;2.10;99.90;;;;;;5072902;28;20393;-64
2020/12/30 02:52:20;;;;;;;5.40;4.20;;;2.20;99.90;;;;;;5072363;28;20171;-64
2020/12/30 02:54:45;;;;;;;5.63;3.40;;;2.20;99.90;;;;;;5072802;28;20740;-64
2020/12/30 02:57:11;;;;;;;4.37;3.97;;;2.20;99.90;;;;;;5072161;28;20187;-64
2020/12/30 02:59:36;;;;;;;5.13;4.63;;;2.20;99.90;;;;;;5072150;28;20198;-64
2020/12/30 03:02:02;;;;;;;4.43;4.03;;;2.30;99.90;;;;;;5072666;28;20172;-63
2020/12/30 03:04:28;;;;;;;6.77;4.50;;;2.20;99.90;;;;;;5072380;28;20187;-64
2020/12/30 03:06:53;;;;;;;5.07;4.53;;;2.20;99.90;;;;;;5072128;28;20535;-64
2020/12/30 03:09:19;;;;;;;5.63;5.13;;;2.20;99.90;;;;;;5072147;28;20553;-64
2020/12/30 03:11:48;;;;;;;5.83;4.73;;;2.10;99.90;;;;;;5071949;28;20551;-64
2020/12/30 03:14:14;;;;;;;4.93;4.43;;;2.10;99.90;;;;;;5070914;28;20171;-64
2020/12/30 03:16:39;;;;;;;6.57;5.70;;;2.10;99.90;;;;;;5071790;28;20420;-64
2020/12/30 03:19:05;;;;;;;6.73;6.13;;;2.10;99.90;;;;;;5071857;28;20191;-64
2020/12/30 03:21:30;;;;;;;8.70;6.83;;;2.10;99.90;;;;;;5071152;28;20159;-64
2020/12/30 03:23:56;;;;;;;6.13;5.00;;;2.20;99.90;;;;;;5072278;28;20167;-64
2020/12/30 03:26:22;;;;;;;6.93;5.87;;;2.20;99.90;;;;;;5071659;28;20240;-64
2020/12/30 03:28:47;;;;;;;6.87;6.20;;;2.20;99.90;;;;;;5071494;28;20179;-64
2020/12/30 03:31:13;;;;;;;8.83;7.63;;;2.10;99.90;;;;;;5071971;28;20242;-63
2020/12/30 03:33:38;;;;;;;10.03;6.63;;;2.10;99.90;;;;;;5072106;28;20179;-64
2020/12/30 03:36:04;;;;;;;8.50;7.07;;;2.10;99.90;;;;;;5070477;28;20234;-64
2020/12/30 03:38:29;;;;;;;7.37;6.27;;;2.10;99.90;;;;;;5071570;28;20172;-64
2020/12/30 03:40:55;;;;;;;8.07;6.67;;;2.10;99.90;;;;;;5072016;28;20717;-64
2020/12/30 03:43:20;;;;;;;7.93;6.20;;;2.10;99.90;;;;;;5071523;28;20686;-64
2020/12/30 03:45:46;;;;;;;8.73;7.87;;;2.10;99.90;;;;;;5072135;28;20198;-64
2020/12/30 03:48:11;;;;;;;8.00;7.20;;;2.10;99.90;;;;;;5071444;28;20170;-64
2020/12/30 03:50:37;;;;;;;6.80;6.07;;;2.10;99.90;;;;;;5071929;28;20543;-64
2020/12/30 03:53:03;;;;;;;8.37;7.20;;;2.10;99.90;;;;;;5053269;28;20175;-64
2020/12/30 03:55:28;;;;;;;12.63;10.27;;;2.10;99.90;;;;;;5071422;28;20429;-64
2020/12/30 03:57:54;;;;;;;9.53;7.57;;;2.20;99.90;;;;;;5070601;28;20283;-64
2020/12/30 04:00:19;;;;;;;7.10;6.17;;;2.20;99.90;;;;;;5071683;28;20206;-64
2020/12/30 04:02:45;;;;;;;7.80;6.20;;;2.20;99.90;;;;;;5071951;28;20178;-64
2020/12/30 04:05:10;;;;;;;7.00;6.40;;;2.20;99.90;;;;;;5070500;28;20198;-64
2020/12/30 04:07:36;;;;;;;7.90;7.17;;;2.10;99.90;;;;;;5071584;28;20171;-64
2020/12/30 04:10:03;;;;;;;7.83;7.13;;;2.20;99.90;;;;;;5071830;28;20250;-64
2020/12/30 04:12:28;;;;;;;6.67;5.50;;;2.20;99.90;;;;;;5071649;28;20409;-64
2020/12/30 04:14:54;;;;;;;6.70;5.87;;;2.20;99.90;;;;;;5071443;28;20524;-64
2020/12/30 04:17:19;;;;;;;6.70;5.50;;;2.20;99.90;;;;;;5071379;28;20647;-63
2020/12/30 04:19:45;;;;;;;6.40;5.63;;;2.20;99.90;;;;;;5071341;28;20198;-64
2020/12/30 04:22:10;;;;;;;6.90;6.00;;;2.30;99.90;;;;;;5071614;28;20229;-64
2020/12/30 04:24:36;;;;;;;8.90;7.27;;;2.30;99.90;;;;;;5071351;28;20193;-63
2020/12/30 04:27:02;;;;;;;6.50;5.90;;;2.30;99.90;;;;;;5071250;28;20284;-64
2020/12/30 04:29:27;;;;;;;9.27;7.00;;;2.20;99.90;;;;;;5071342;28;20236;-64
2020/12/30 04:31:53;;;;;;;10.00;6.67;;;2.20;99.90;;;;;;5073594;28;20179;-64
2020/12/30 04:34:18;;;;;;;9.30;6.10;;;2.20;99.90;;;;;;5075374;28;20678;-64
2020/12/30 04:36:44;;;;;;;9.50;8.00;;;2.20;99.90;;;;;;5075157;28;20237;-64
2020/12/30 04:39:10;;;;;;;7.87;6.27;;;2.20;99.90;;;;;;5075853;28;20519;-64
2020/12/30 04:41:37;;;;;;;6.30;5.70;;;2.20;99.90;;;;;;5075162;28;20174;-63
2020/12/30 04:44:04;;;;;;;8.70;6.37;;;2.30;99.90;;;;;;5075407;28;20179;-64
2020/12/30 04:46:30;;;;;;;6.43;5.73;;;2.30;99.90;;;;;;5074941;28;20455;-63
2020/12/30 04:49:00;;;;;;;9.80;7.10;;;2.30;99.90;;;;;;5075168;28;20412;-63
2020/12/30 04:51:26;;;;;;;6.23;5.63;;;2.40;99.90;;;;;;5073784;28;20179;-64
2020/12/30 04:53:58;;;;;;;7.97;7.20;;;2.40;99.90;;;;;;5075144;28;20412;-64
2020/12/30 04:56:53;;;;;;;9.03;7.77;;;2.40;99.90;;;;;;5074966;28;20830;-63
2020/12/30 04:59:21;;;;;;;10.30;7.40;;;2.30;99.90;;;;;;5074188;28;20461;-64
2020/12/30 05:02:09;;;;;;;8.20;6.13;;;2.30;99.90;;;;;;5074905;28;20487;-64
2020/12/30 05:04:36;;;;;;;8.30;7.03;;;2.30;99.90;;;;;;5074892;28;20830;-64
2020/12/30 05:07:07;;;;;;;7.73;6.90;;;2.30;99.90;;;;;;5074510;28;20834;-64
2020/12/30 05:09:37;;;;;;;8.33;6.30;;;2.20;99.90;;;;;;5075607;28;20455;-62
2020/12/30 05:12:16;;;;;;;7.70;6.40;;;2.20;99.90;;;;;;5074770;28;20408;-62
2020/12/30 05:14:42;;;;;;;6.43;5.80;;;2.20;99.90;;;;;;5074595;28;20522;-61
2020/12/30 05:17:09;;;;;;;6.83;5.60;;;2.20;99.90;;;;;;5074466;28;20433;-62
2020/12/30 05:19:35;;;;;;;7.37;6.67;;;2.20;99.90;;;;;;5074755;28;21018;-62
2020/12/30 05:22:01;;;;;;;8.20;6.87;;;2.10;99.90;;;;;;5074705;28;20492;-62
2020/12/30 05:24:31;;;;;;;6.20;5.63;;;2.10;99.90;;;;;;5074422;28;20870;-60
2020/12/30 05:26:58;;;;;;;7.53;5.50;;;2.10;99.90;;;;;;5074341;28;20409;-62
2020/12/30 05:29:24;;;;;;;8.47;7.13;;;2.10;99.90;;;;;;5074174;28;20784;-62
2020/12/30 05:31:54;;;;;;;7.37;5.97;;;2.10;99.90;;;;;;5074508;28;20424;-62
2020/12/30 05:34:21;;;;;;;6.80;6.00;;;2.10;99.90;;;;;;5074151;28;20819;-63
2020/12/30 05:36:48;;;;;;;6.00;4.63;;;2.10;99.90;;;;;;5074167;28;20402;-61
2020/12/30 05:39:31;;;;;;;10.20;5.80;;;2.10;99.90;;;;;;5074124;28;20449;-62
2020/12/30 05:42:19;;;;;;;6.83;5.80;;;2.10;99.90;;;;;;5074211;28;20477;-62
2020/12/30 05:44:47;;;;;;;7.07;5.80;;;2.10;99.90;;;;;;5073966;28;20425;-62
2020/12/30 05:47:24;;;;;;;7.93;6.27;;;2.10;99.90;;;;;;5073972;28;20397;-61
2020/12/30 05:49:52;;;;;;;7.37;6.57;;;2.10;99.90;;;;;;5074023;28;20397;-62
2020/12/30 05:52:23;;;;;;;8.90;6.93;;;2.10;99.90;;;;;;5073902;28;20409;-62
2020/12/30 05:54:59;;;;;;;6.13;5.53;;;2.10;99.90;;;;;;5074125;28;20732;-62
2020/12/30 05:57:36;;;;;;;6.97;5.20;;;2.10;99.90;;;;;;5073467;28;20421;-62
2020/12/30 06:00:10;;;;;;;7.73;6.00;;;2.10;99.90;;;;;;5073855;28;20457;-63
2020/12/30 06:02:40;;;;;;;8.70;5.30;;;2.10;99.90;;;;;;5073749;28;20404;-62
2020/12/30 06:05:12;;;;;;;7.73;5.93;;;2.10;99.90;;;;;;5073865;28;20487;-62
2020/12/30 06:07:43;;;;;;;7.10;5.87;;;2.10;99.90;;;;;;5073411;28;20401;-62
2020/12/30 06:10:10;;;;;;;7.67;5.97;;;2.10;99.90;;;;;;5073836;28;20462;-62
2020/12/30 06:12:58;;;;;;;9.27;6.13;;;2.10;99.90;;;;;;5073656;28;20817;-62
2020/12/30 06:15:32;;;;;;;7.23;6.50;;;2.10;99.90;;;;;;5073550;28;20508;-62
2020/12/30 06:17:57;;;;;;;6.90;6.20;;;2.00;99.90;;;;;;5073099;28;20405;-63
2020/12/30 06:20:32;;;;;;;6.13;5.53;;;2.00;99.90;;;;;;5073527;28;20453;-62
2020/12/30 06:23:03;;;;;;;8.20;6.90;;;2.00;99.90;;;;;;5072084;28;20174;-62
2020/12/30 06:25:33;;;;;;;6.03;5.20;;;2.00;99.90;;;;;;5072422;28;20417;-62
2020/12/30 06:28:06;;;;;;;8.13;5.83;;;2.10;99.90;;;;;;5071611;28;20386;-62
2020/12/30 06:30:32;;;;;;;8.73;6.60;;;2.10;99.90;;;;;;5073389;28;20438;-61
2020/12/30 06:33:00;;;;;;;7.27;5.10;;;2.00;99.90;;;;;;5073234;28;20409;-63
2020/12/30 06:35:28;;;;;;;8.87;6.37;;;2.10;99.90;;;;;;5073460;28;20234;-64
2020/12/30 06:37:54;;;;;;;9.00;7.27;;;2.10;99.90;;;;;;5072865;28;20874;-63
2020/12/30 06:40:22;;;;;;;9.17;5.90;;;2.10;99.90;;;;;;5072800;28;20516;-61
2020/12/30 06:42:55;;;;;;;7.10;5.57;;;2.00;99.90;;;;;;5073103;28;20168;-63
2020/12/30 06:45:42;;;;;;;9.77;7.77;;;2.00;99.90;;;;;;5072953;28;20428;-60
2020/12/30 06:48:09;;;;;;;9.87;8.00;;;2.10;99.90;;;;;;5071383;28;20433;-61
2020/12/30 06:50:35;;;;;;;15.20;8.10;;;2.00;99.90;;;;;;5071095;28;20496;-62
2020/12/30 06:53:26;;;;;;;10.40;8.00;;;2.10;99.90;;;;;;5072871;28;20505;-61
2020/12/30 06:55:53;;;;;;;7.70;6.90;;;2.00;99.90;;;;;;5072547;28;20186;-61
2020/12/30 06:58:42;;;;;;;11.53;8.03;;;2.00;99.90;;;;;;5072350;28;20421;-62
2020/12/30 07:01:07;;;;;;;10.20;8.40;;;2.00;99.90;;;;;;5072408;28;20787;-60
2020/12/30 07:03:33;;;;;;;12.53;9.23;;;2.00;99.90;;;;;;5072868;28;20409;-63
2020/12/30 07:06:23;;;;;;;11.53;8.27;;;2.00;99.90;;;;;;5072268;28;20521;-62
2020/12/30 07:08:50;;;;;;;9.90;8.13;;;2.00;99.90;;;;;;5071032;28;20209;-60
2020/12/30 07:11:52;;;;;;;10.20;9.00;;;2.00;99.90;;;;;;5072441;28;20489;-62
2020/12/30 07:14:20;;;;;;;13.40;8.93;;;2.00;99.90;;;;;;5070050;28;20474;-59
2020/12/30 07:16:53;;;;;;;11.50;9.23;;;2.00;99.90;;;;;;5071625;28;20410;-57
2020/12/30 07:19:33;;;;;;;11.60;8.33;;;2.10;99.90;;;;;;5071286;28;20544;-59
2020/12/30 07:22:12;;;;;;;13.03;9.53;;;2.10;99.90;;;;;;5072211;28;20413;-59
2020/12/30 07:24:45;;;;;;;11.50;9.37;;;2.00;99.90;;;;;;5072374;28;20417;-57
2020/12/30 07:27:15;;;;;;;11.63;9.30;;;2.00;99.90;;;;;;5072103;28;20401;-59
2020/12/30 07:29:46;;;;;;;13.33;9.23;;;2.10;99.90;;;;;;5072183;28;20409;-60
2020/12/30 07:32:12;;;;;;;15.43;9.27;;;2.00;99.90;;;;;;5072249;28;20484;-59
2020/12/30 07:34:49;;;;;;;13.30;10.30;;;2.00;99.90;;;;;;5071948;28;20508;-59
2020/12/30 07:37:16;;;;;;;10.40;8.20;;;2.10;99.90;;;;;;5072003;28;20409;-55
2020/12/30 07:39:44;;;;;;;18.77;9.83;;;2.10;99.90;;;;;;5071851;28;20451;-58
2020/12/30 07:42:23;;;;;;;12.17;8.77;;;2.10;99.90;;;;;;5072173;28;20869;-58
2020/12/30 07:44:51;;;;;;;10.00;7.73;;;2.10;99.90;;;;;;5071744;28;20490;-61
2020/12/30 07:47:17;;;;;;;14.03;9.60;;;2.00;99.90;;;;;;5071793;28;20512;-59
2020/12/30 07:49:43;;;;;;;16.03;10.00;;;2.10;99.90;;;;;;5071791;28;20918;-59
2020/12/30 07:52:09;;;;;;;13.60;12.20;;;2.10;99.90;;;;;;5072001;28;20405;-58
2020/12/30 07:54:35;;;;;;;10.43;7.63;;;2.10;99.90;;;;;;5071824;28;20425;-60
2020/12/30 07:57:11;;;;;;;12.47;8.60;;;2.10;99.90;;;;;;5071519;28;20413;-60
2020/12/30 07:59:39;;;;;;;7.97;6.20;;;2.20;99.90;;;;;;5071842;28;20203;-60
2020/12/30 08:02:05;;;;;;;10.90;8.07;;;2.20;99.90;;;;;;5071658;28;20472;-62
2020/12/30 08:04:35;;;;;;;9.23;7.50;;;2.20;99.90;;;;;;5071805;28;20426;-62
2020/12/30 08:07:12;;;;;;;12.53;9.10;;;2.20;99.90;;;;;;5070957;28;20413;-62
2020/12/30 08:09:39;;;;;;;11.30;8.60;;;2.20;99.90;;;;;;5071757;28;20432;-58
2020/12/30 08:12:08;;;;;;;9.50;7.53;;;2.20;99.90;;;;;;5071555;28;20445;-60
2020/12/30 08:14:36;;;;;;;11.27;6.97;;;2.20;99.90;;;;;;5071649;28;20429;-61
2020/12/30 08:17:07;;;;;;;8.13;7.13;;;2.20;99.90;;;;;;5071292;28;20413;-55
2020/12/30 08:19:36;;;;;;;8.37;6.87;;;2.30;99.90;;;;;;5071608;28;20455;-62
2020/12/30 08:22:04;;;;;;;8.30;7.50;;;2.20;99.90;;;;;;5071534;28;20413;-62
2020/12/30 08:24:30;;;;;;;7.83;6.67;;;2.30;99.90;;;;;;5071570;28;20435;-60
2020/12/30 08:26:57;;;;;;;8.63;7.20;;;2.20;99.90;;;;;;5071333;28;20874;-60
2020/12/30 08:29:28;;;;;;;11.53;7.60;;;2.20;99.90;;;;;;5071359;28;20410;-61
2020/12/30 08:31:57;;;;;;;9.03;7.30;;;2.30;99.90;;;;;;5071628;28;20408;-62
2020/12/30 08:34:27;;;;;;;7.50;6.20;;;2.30;99.90;;;;;;5071403;28;20402;-59
2020/12/30 08:37:24;;;;;;;8.03;6.60;;;2.30;99.90;;;;;;5071271;28;20469;-62
2020/12/30 08:40:03;;;;;;;11.07;7.10;;;2.40;99.90;;;;;;5070891;28;20464;-60
2020/12/30 08:42:53;;;;;;;10.57;6.60;;;2.50;99.90;;;;;;5071576;28;20401;-59
2020/12/30 08:45:32;;;;;;;10.03;6.30;;;2.30;99.90;;;;;;5069865;28;20434;-60
2020/12/30 08:48:06;;;;;;;10.13;6.30;;;2.30;99.90;;;;;;5071080;28;20408;-58
2020/12/30 08:50:32;;;;;;;7.60;6.90;;;2.30;99.90;;;;;;5071278;28;20412;-59
2020/12/30 08:52:58;;;;;;;9.83;6.73;;;2.30;99.90;;;;;;5071593;28;20885;-61
2020/12/30 08:55:23;;;;;;;8.97;6.40;;;2.30;99.90;;;;;;5070522;28;20429;-59
2020/12/30 08:57:50;;;;;;;6.90;5.90;;;2.40;99.90;;;;;;5069155;28;20663;-58
2020/12/30 09:00:19;;;;;;;8.10;6.43;;;2.40;99.90;;;;;;5071049;28;20286;-62
2020/12/30 09:02:47;;;;;;;6.87;5.40;;;2.50;99.90;;;;;;5071243;28;20912;-63
2020/12/30 09:05:13;;;;;;;10.50;6.27;;;2.50;99.90;;;;;;5071189;28;20425;-64
2020/12/30 09:07:39;;;;;;;6.90;5.60;;;2.40;99.90;;;;;;5070883;28;20426;-63
2020/12/30 09:10:10;;;;;;;8.33;7.27;;;2.40;99.90;;;;;;5071171;28;20495;-63
2020/12/30 09:12:37;;;;;;;9.13;6.90;;;2.50;99.90;;;;;;5070952;28;20406;-62
2020/12/30 09:15:05;;;;;;;9.33;5.87;;;2.50;99.90;;;;;;5071209;28;20429;-62
2020/12/30 09:17:31;;;;;;;9.10;6.13;;;2.50;99.90;;;;;;5070746;28;20409;-61
2020/12/30 09:20:10;;;;;;;7.07;5.13;;;2.60;99.90;;;;;;5074476;28;20967;-62
2020/12/30 09:22:35;;;;;;;7.63;5.93;;;2.50;99.90;;;;;;5074509;28;20405;-62
2020/12/30 09:25:01;;;;;;;9.33;6.37;;;2.50;99.90;;;;;;5074576;28;20440;-62
2020/12/30 09:27:29;;;;;;;8.13;5.33;;;2.60;99.90;;;;;;5074264;28;20217;-62
2020/12/30 09:30:06;;;;;;;6.83;6.13;;;2.60;99.90;;;;;;5074372;28;20198;-64
2020/12/30 09:32:32;;;;;;;8.33;6.30;;;2.60;99.90;;;;;;5074502;28;20437;-60
2020/12/30 09:34:59;;;;;;;10.03;6.20;;;2.70;99.90;;;;;;5074311;28;20472;-63
2020/12/30 09:37:25;;;;;;;7.83;5.87;;;2.70;99.90;;;;;;5074201;28;20172;-63
2020/12/30 09:40:11;;;;;;;9.60;6.47;;;2.70;99.90;;;;;;5074156;28;20449;-62
2020/12/30 09:42:39;;;;;;;6.43;5.73;;;2.80;99.90;;;;;;5074450;28;20572;-62
2020/12/30 09:45:06;;;;;;;6.90;5.63;;;2.80;99.90;;;;;;5074043;28;20452;-63
2020/12/30 09:47:33;;;;;;;7.80;5.97;;;2.80;99.90;;;;;;5074076;28;20428;-57
2020/12/30 09:49:59;;;;;;;6.50;5.53;;;2.80;99.90;;;;;;5073914;28;20463;-57
2020/12/30 09:52:24;;;;;;;8.97;6.83;;;2.80;99.90;;;;;;5074256;28;20397;-58
2020/12/30 09:54:50;;;;;;;9.23;6.03;;;2.80;99.90;;;;;;5073906;28;20842;-62
2020/12/30 09:57:15;;;;;;;10.30;6.37;;;2.80;99.90;;;;;;5073737;28;20187;-63
2020/12/30 09:59:42;;;;;;;7.73;6.93;;;2.80;99.90;;;;;;5073954;28;20221;-62
2020/12/30 10:02:08;;;;;;;8.17;6.43;;;2.80;99.90;;;;;;5073896;28;20163;-61
2020/12/30 10:04:33;;;;;;;8.53;6.30;;;2.80;99.90;;;;;;5073820;28;20441;-58
2020/12/30 10:06:59;;;;;;;10.30;6.90;;;2.80;99.90;;;;;;5073439;28;20195;-62
2020/12/30 10:09:24;;;;;;;10.40;8.50;;;2.80;99.90;;;;;;5073765;28;20176;-56
2020/12/30 10:11:51;;;;;;;10.87;7.10;;;2.80;99.90;;;;;;5073665;28;20690;-61
2020/12/30 10:14:20;;;;;;;11.73;6.63;;;2.80;99.90;;;;;;5073713;28;20167;-61
2020/12/30 10:16:49;;;;;;;8.60;6.87;;;2.80;99.90;;;;;;5073249;28;20409;-62
2020/12/30 10:19:15;;;;;;;11.50;7.27;;;2.80;99.90;;;;;;5073606;28;20460;-62
2020/12/30 10:21:41;;;;;;;12.77;6.87;;;2.80;99.90;;;;;;5073606;28;20936;-61
2020/12/30 10:24:06;;;;;;;9.57;7.07;;;2.80;99.90;;;;;;5073518;28;20410;-61
2020/12/30 10:26:33;;;;;;;11.43;6.60;;;2.90;99.90;;;;;;5073327;28;20175;-61
2020/12/30 10:28:59;;;;;;;7.53;6.20;;;2.80;99.90;;;;;;5072951;28;20175;-59
2020/12/30 10:31:24;;;;;;;7.60;6.67;;;2.90;99.90;;;;;;5073486;28;20906;-61
2020/12/30 10:33:51;;;;;;;14.07;6.77;;;2.90;99.90;;;;;;5073278;28;20414;-61
2020/12/30 10:36:17;;;;;;;10.43;7.43;;;2.90;99.90;;;;;;5073325;28;20206;-61
2020/12/30 10:38:43;;;;;;;10.33;6.93;;;2.90;99.90;;;;;;5072720;28;20951;-61
2020/12/30 10:41:14;;;;;;;9.70;7.50;;;2.90;99.90;;;;;;5073262;28;20405;-61
2020/12/30 10:43:40;;;;;;;10.67;8.43;;;3.00;99.90;;;;;;5073260;28;20246;-60
2020/12/30 10:46:11;;;;;;;9.50;7.00;;;2.90;99.90;;;;;;5072963;28;20429;-62
2020/12/30 10:48:37;;;;;;;6.00;5.30;;;3.00;99.90;;;;;;5072812;28;20393;-60
2020/12/30 10:51:02;;;;;;;7.93;6.73;;;3.00;99.90;;;;;;5072986;28;20474;-61
2020/12/30 10:53:28;;;;;;;14.00;7.47;;;3.00;99.90;;;;;;5073074;28;20163;-58
2020/12/30 10:55:53;;;;;;;8.50;6.60;;;3.00;99.90;;;;;;5072725;28;20187;-58
2020/12/30 10:58:19;;;;;;;9.77;7.13;;;3.00;99.90;;;;;;5072444;28;20191;-59
2020/12/30 11:00:44;;;;;;;8.20;6.23;;;3.10;99.90;;;;;;5072589;28;20285;-61
2020/12/30 11:03:10;;;;;;;11.33;6.07;;;3.10;99.90;;;;;;5072859;28;20175;-61
2020/12/30 11:05:35;;;;;;;13.87;7.50;;;3.10;99.90;;;;;;5072615;28;20191;-61
2020/12/30 11:08:01;;;;;;;7.83;6.50;;;3.20;99.90;;;;;;5072947;28;20171;-62
2020/12/30 11:10:27;;;;;;;7.17;5.60;;;3.20;99.90;;;;;;5072675;28;20183;-62
2020/12/30 11:12:52;;;;;;;8.20;5.97;;;3.20;99.90;;;;;;5072446;28;20182;-61
2020/12/30 11:15:18;;;;;;;7.73;6.40;;;3.30;99.90;;;;;;5072506;28;20191;-59
2020/12/30 11:17:43;;;;;;;7.30;6.27;;;3.30;99.90;;;;;;5072015;28;20179;-62
2020/12/30 11:20:11;;;;;;;8.70;6.97;;;3.30;99.90;;;;;;5072441;28;20253;-60
2020/12/30 11:22:36;;;;;;;7.90;7.13;;;3.30;99.90;;;;;;5072341;28;20167;-60
2020/12/30 11:25:02;;;;;;;10.47;7.30;;;3.30;99.90;;;;;;5072368;28;20483;-61
2020/12/30 11:27:27;;;;;;;9.30;7.67;;;3.30;99.90;;;;;;5071866;28;20615;-62
2020/12/30 11:29:53;;;;;;;11.17;7.63;;;3.20;99.90;;;;;;5072258;28;20547;-63
2020/12/30 11:32:18;;;;;;;10.87;9.20;;;3.20;99.90;;;;;;5072354;28;20651;-61
2020/12/30 11:34:44;;;;;;;10.33;8.60;;;3.30;99.90;;;;;;5072069;28;20194;-62
2020/12/30 11:37:10;;;;;;;10.57;6.77;;;3.30;99.90;;;;;;5071920;28;20236;-63
2020/12/30 11:39:35;;;;;;;8.97;7.47;;;3.30;99.90;;;;;;5071901;28;20248;-64
2020/12/30 11:42:01;;;;;;;9.63;8.43;;;3.30;99.90;;;;;;5071525;28;20171;-62
2020/12/30 11:44:26;;;;;;;8.23;6.53;;;3.30;99.90;;;;;;5071848;28;20163;-62
2020/12/30 11:46:52;;;;;;;12.13;7.30;;;3.30;99.90;;;;;;5071819;28;20585;-62
2020/12/30 11:49:19;;;;;;;14.53;8.80;;;3.40;99.90;;;;;;5071931;28;20221;-65
2020/12/30 11:51:45;;;;;;;9.30;8.20;;;3.50;99.90;;;;;;5072005;28;20174;-64
2020/12/30 11:54:10;;;;;;;8.80;7.03;;;3.60;99.90;;;;;;5071909;28;20406;-64
2020/12/30 11:56:36;;;;;;;9.70;8.07;;;3.70;99.90;;;;;;5071430;28;20418;-65
2020/12/30 11:59:01;;;;;;;10.53;8.50;;;3.70;99.90;;;;;;5071613;28;20202;-64
2020/12/30 12:01:32;;;;;;;8.90;8.00;;;3.80;99.90;;;;;;5071939;28;20272;-64
2020/12/30 12:03:59;;;;;;;8.47;7.57;;;3.60;99.90;;;;;;5072025;28;20405;-64
2020/12/30 12:06:25;;;;;;;11.23;8.77;;;3.60;99.90;;;;;;5071551;28;20452;-64
2020/12/30 12:08:51;;;;;;;10.67;7.70;;;3.60;99.90;;;;;;5071533;28;20456;-64
2020/12/30 12:11:16;;;;;;;10.93;8.00;;;3.60;99.90;;;;;;5071618;28;20425;-64
2020/12/30 12:13:42;;;;;;;10.03;9.07;;;3.60;99.90;;;;;;5071751;28;20691;-64
2020/12/30 12:16:11;;;;;;;10.37;8.30;;;3.60;99.90;;;;;;5071725;28;20304;-64
2020/12/30 12:18:37;;;;;;;10.87;8.70;;;3.60;99.90;;;;;;5071493;28;20709;-64
2020/12/30 12:21:03;;;;;;;10.50;8.93;;;3.60;99.90;;;;;;5071742;28;20402;-64
2020/12/30 12:23:29;;;;;;;10.00;8.07;;;3.50;99.90;;;;;;5071549;28;20171;-65
2020/12/30 12:25:55;;;;;;;11.77;8.93;;;3.50;99.90;;;;;;5071599;28;20429;-64
2020/12/30 12:28:59;;;;;;;11.47;8.17;;;3.50;99.90;;;;;;5071124;28;20593;-65
2020/12/30 12:31:25;;;;;;;12.00;9.00;;;3.60;99.90;;;;;;5071703;28;20538;-64
2020/12/30 12:33:51;;;;;;;11.27;8.63;;;3.50;99.90;;;;;;5071438;28;20795;-64
2020/12/30 12:36:17;;;;;;;12.23;9.17;;;3.50;99.90;;;;;;5071542;28;20418;-65
2020/12/30 12:38:43;;;;;;;12.10;9.73;;;3.50;99.90;;;;;;5070912;28;20178;-64
2020/12/30 12:41:09;;;;;;;10.63;7.83;;;3.50;99.90;;;;;;5071585;28;20409;-64
2020/12/30 12:43:35;;;;;;;11.13;9.23;;;3.50;99.90;;;;;;5071385;28;20663;-65
2020/12/30 12:46:00;;;;;;;10.20;9.07;;;3.50;99.90;;;;;;5071474;28;20439;-64
2020/12/30 12:48:26;;;;;;;11.00;8.50;;;3.40;99.90;;;;;;5071188;28;20547;-65
2020/12/30 12:50:51;;;;;;;14.13;9.57;;;3.40;99.90;;;;;;5069989;28;20225;-64
2020/12/30 12:53:17;;;;;;;11.67;9.20;;;3.40;99.90;;;;;;5074015;28;20213;-65
2020/12/30 12:55:43;;;;;;;12.07;9.03;;;3.40;99.90;;;;;;5075063;28;20198;-64
2020/12/30 12:58:08;;;;;;;9.50;7.40;;;3.50;99.90;;;;;;5074798;28;20431;-64
2020/12/30 13:00:34;;;;;;;10.97;7.80;;;3.50;99.90;;;;;;5074991;28;20280;-65